Time;durP1;ratioP1;P1;durP2;ratioP2;P2;SDS_P1;SDS_P2;PMS_P1;PMS_P2;Temp;Humidity;BMP_temperature;BMP_pressure;BME280_temperature;BME280_humidity;BME280_pressure;Samples;Min_cycle;Max_cycle;Signal;HPM_P1;HPM_P2
2023/07/07 04:02:57;;;;;;;0.60;0.10;;;18.40;1.00;;;;;;4933341;29;20482;-75
2023/07/07 04:05:26;;;;;;;0.60;0.10;;;18.30;1.00;;;;;;4938222;29;20439;-75
2023/07/07 04:07:54;;;;;;;0.60;0.20;;;18.30;1.00;;;;;;4941217;29;20442;-75
2023/07/07 04:10:22;;;;;;;0.60;0.20;;;18.30;1.00;;;;;;4941082;29;20515;-75
2023/07/07 04:12:50;;;;;;;0.60;0.20;;;18.30;1.00;;;;;;4959131;29;20577;-74
2023/07/07 04:15:18;;;;;;;0.60;0.20;;;18.40;1.00;;;;;;4960200;29;20545;-74
2023/07/07 04:17:46;;;;;;;0.60;0.10;;;18.40;1.00;;;;;;4958752;29;20454;-75
2023/07/07 04:20:15;;;;;;;0.60;0.13;;;18.30;1.00;;;;;;4959081;29;20442;-72
2023/07/07 04:22:43;;;;;;;0.60;0.10;;;18.30;1.00;;;;;;4958102;29;20465;-71
2023/07/07 04:25:13;;;;;;;0.60;0.10;;;18.30;1.00;;;;;;4957971;29;20465;-70
2023/07/07 04:27:41;;;;;;;0.60;0.10;;;18.40;1.00;;;;;;4957938;29;20472;-70
2023/07/07 04:30:10;;;;;;;0.60;0.10;;;18.40;1.00;;;;;;4957577;29;20454;-71
2023/07/07 04:32:41;;;;;;;0.60;0.20;;;18.70;1.00;;;;;;4957410;29;20466;-71
2023/07/07 04:35:09;;;;;;;0.70;0.53;;;18.70;1.00;;;;;;4957878;29;20438;-71
2023/07/07 04:37:39;;;;;;;0.70;0.57;;;;;;;;;;4957931;29;20438;-70
2023/07/07 04:40:08;;;;;;;0.60;0.20;;;18.90;1.00;;;;;;4959071;29;20520;-69
2023/07/07 04:42:37;;;;;;;0.60;0.10;;;18.80;1.00;;;;;;4962589;29;20493;-74
2023/07/07 04:45:05;;;;;;;0.60;0.10;;;18.80;1.00;;;;;;4961441;29;20453;-73
2023/07/07 04:47:33;;;;;;;0.60;0.20;;;18.80;1.00;;;;;;4958760;29;21000;-70
2023/07/07 04:50:01;;;;;;;0.60;0.10;;;18.90;1.00;;;;;;4958458;29;20445;-69
2023/07/07 04:52:28;;;;;;;0.60;0.10;;;18.90;1.00;;;;;;4960617;29;20561;-70
2023/07/07 04:54:58;;;;;;;0.60;0.20;;;19.00;1.00;;;;;;4958308;29;20493;-69
2023/07/07 04:57:26;;;;;;;0.60;0.20;;;18.90;1.00;;;;;;4958748;29;20450;-69
2023/07/07 04:59:54;;;;;;;0.60;0.10;;;19.00;1.00;;;;;;4958480;29;20539;-69
2023/07/07 05:02:22;;;;;;;0.60;0.10;;;19.00;1.00;;;;;;4957509;29;20988;-69
2023/07/07 05:04:51;;;;;;;0.60;0.10;;;19.00;1.00;;;;;;4957677;29;20977;-69
2023/07/07 05:07:19;;;;;;;0.60;0.20;;;18.90;1.00;;;;;;4957510;29;20455;-69
2023/07/07 05:09:46;;;;;;;0.60;0.20;;;18.70;1.00;;;;;;4957907;29;20477;-72
2023/07/07 05:12:16;;;;;;;0.60;0.20;;;18.70;1.00;;;;;;4942555;29;20526;-73
2023/07/07 05:14:44;;;;;;;0.60;0.10;;;18.60;1.00;;;;;;4942921;29;20551;-73
2023/07/07 05:17:11;;;;;;;0.60;0.20;;;18.50;1.00;;;;;;4942631;29;20513;-74
2023/07/07 05:19:40;;;;;;;2.30;1.27;;;;;;;;;;4942991;29;20510;-74
2023/07/07 05:22:07;;;;;;;0.60;0.10;;;18.40;1.00;;;;;;4941866;29;20469;-73
2023/07/07 05:24:36;;;;;;;0.60;0.20;;;18.40;1.00;;;;;;4942147;29;20453;-73
2023/07/07 05:27:04;;;;;;;0.60;0.10;;;18.50;1.00;;;;;;4942323;29;20446;-73
2023/07/07 05:29:34;;;;;;;0.60;0.10;;;18.50;1.00;;;;;;4958408;29;20441;-73
2023/07/07 05:32:02;;;;;;;0.60;0.13;;;18.50;1.00;;;;;;4948958;29;20466;-74
2023/07/07 05:34:30;;;;;;;0.60;0.20;;;18.60;1.00;;;;;;4949372;29;20479;-74
2023/07/07 05:36:58;;;;;;;0.60;0.20;;;18.70;1.00;;;;;;4957928;29;20450;-74
2023/07/07 05:39:26;;;;;;;0.60;0.10;;;18.70;1.00;;;;;;4954805;29;20487;-74
2023/07/07 05:41:55;;;;;;;0.60;0.10;;;18.70;1.00;;;;;;4965806;29;20470;-73
2023/07/07 05:44:23;;;;;;;0.60;0.20;;;18.80;1.00;;;;;;4959964;29;20446;-73
2023/07/07 05:46:52;;;;;;;0.60;0.17;;;18.90;1.00;;;;;;4957501;29;20459;-74
2023/07/07 05:49:20;;;;;;;0.60;0.20;;;18.90;1.00;;;;;;4967994;29;20447;-72
2023/07/07 05:51:48;;;;;;;0.60;0.10;;;19.00;1.00;;;;;;4946267;29;20525;-74
2023/07/07 05:54:16;;;;;;;0.60;0.20;;;19.10;1.00;;;;;;4950434;29;20574;-74
2023/07/07 05:56:44;;;;;;;0.60;0.20;;;19.10;1.00;;;;;;4951333;29;21019;-74
2023/07/07 05:59:12;;;;;;;0.60;0.20;;;19.20;1.00;;;;;;4941998;29;20454;-73
2023/07/07 06:01:40;;;;;;;0.60;0.10;;;19.30;1.00;;;;;;4958533;29;20564;-74
2023/07/07 06:04:10;;;;;;;0.60;0.10;;;19.30;1.00;;;;;;4950891;29;20447;-73
2023/07/07 06:06:39;;;;;;;0.60;0.20;;;19.40;1.00;;;;;;4952218;29;20452;-73
2023/07/07 06:09:07;;;;;;;0.60;0.17;;;19.40;1.00;;;;;;4958182;29;20513;-73
2023/07/07 06:11:35;;;;;;;0.60;0.10;;;19.50;1.00;;;;;;4944712;29;20551;-73
2023/07/07 06:14:03;;;;;;;0.60;0.20;;;19.60;1.00;;;;;;4938936;29;20543;-74
2023/07/07 06:16:31;;;;;;;0.70;0.30;;;19.50;1.00;;;;;;4938985;29;20451;-74
2023/07/07 06:19:01;;;;;;;3.63;0.33;;;19.60;1.00;;;;;;4938933;29;20475;-74
2023/07/07 06:21:31;;;;;;;0.60;0.10;;;19.60;1.00;;;;;;4939621;29;20475;-74
2023/07/07 06:23:58;;;;;;;0.60;0.17;;;19.70;1.00;;;;;;4938765;29;20451;-73
2023/07/07 06:26:26;;;;;;;0.60;0.20;;;19.70;1.00;;;;;;4939303;29;20950;-75
2023/07/07 06:28:55;;;;;;;0.60;0.10;;;19.80;1.00;;;;;;4938942;29;20440;-73
2023/07/07 06:31:23;;;;;;;0.60;0.17;;;19.90;1.00;;;;;;4939897;29;20476;-73
2023/07/07 06:33:51;;;;;;;0.60;0.10;;;19.90;1.00;;;;;;4939087;29;21045;-76
2023/07/07 06:36:19;;;;;;;1.33;0.63;;;20.00;1.00;;;;;;4938292;29;20448;-77
2023/07/07 06:38:49;;;;;;;0.60;0.20;;;;;;;;;;4939466;29;20573;-76
2023/07/07 06:41:20;;;;;;;0.60;0.17;;;20.10;1.00;;;;;;4939235;29;20471;-76
2023/07/07 06:43:48;;;;;;;0.60;0.10;;;20.20;1.00;;;;;;4939222;29;20556;-76
2023/07/07 06:46:17;;;;;;;0.60;0.20;;;20.20;1.00;;;;;;4938623;29;20531;-76
2023/07/07 06:48:45;;;;;;;0.60;0.10;;;20.40;1.00;;;;;;4938205;29;20575;-75
2023/07/07 06:51:13;;;;;;;0.60;0.20;;;20.50;1.00;;;;;;4938179;29;20499;-76
2023/07/07 06:53:40;;;;;;;0.60;0.10;;;20.70;1.00;;;;;;4938812;29;20484;-75
2023/07/07 06:56:11;;;;;;;0.60;0.20;;;;;;;;;;4944421;29;20490;-76
2023/07/07 06:58:39;;;;;;;0.60;0.10;;;20.80;1.00;;;;;;4946996;29;20838;-75
2023/07/07 07:01:10;;;;;;;0.60;0.10;;;20.90;1.00;;;;;;4946203;29;20539;-76
2023/07/07 07:03:44;;;;;;;0.60;0.20;;;;;;;;;;4955719;29;20471;-76
2023/07/07 07:06:13;;;;;;;0.60;0.20;;;;;;;;;;4955554;29;20448;-77
2023/07/07 07:08:41;;;;;;;0.60;0.20;;;21.00;1.00;;;;;;4962015;29;20443;-76
2023/07/07 07:11:14;;;;;;;0.60;0.10;;;21.00;1.00;;;;;;4954838;29;20532;-76
2023/07/07 07:13:42;;;;;;;0.60;0.10;;;21.10;1.00;;;;;;4954001;29;20471;-76
2023/07/07 07:16:11;;;;;;;0.60;0.20;;;21.10;1.00;;;;;;4954974;29;21068;-76
2023/07/07 07:18:39;;;;;;;0.60;0.20;;;;;;;;;;4944440;29;20802;-75
2023/07/07 07:21:07;;;;;;;4.50;1.47;;;21.10;1.00;;;;;;4945547;29;20856;-75
2023/07/07 07:23:38;;;;;;;6.23;2.63;;;21.20;1.00;;;;;;4945618;29;20467;-76
2023/07/07 07:26:06;;;;;;;0.60;0.20;;;21.20;1.00;;;;;;4942351;29;20556;-76
2023/07/07 07:28:38;;;;;;;0.60;0.10;;;21.30;1.00;;;;;;4945409;29;20546;-76
2023/07/07 07:31:06;;;;;;;0.60;0.20;;;;;;;;;;4960038;29;20496;-76
2023/07/07 07:33:37;;;;;;;0.90;0.50;;;21.40;1.00;;;;;;4943860;29;20503;-77
2023/07/07 07:36:05;;;;;;;0.60;0.20;;;21.40;1.00;;;;;;4946604;29;20514;-77
2023/07/07 07:38:37;;;;;;;0.60;0.10;;;;;;;;;;4960274;29;20889;-76
2023/07/07 07:41:05;;;;;;;0.60;0.10;;;21.60;1.00;;;;;;4953639;29;20555;-76
2023/07/07 07:43:33;;;;;;;0.60;0.20;;;21.60;1.00;;;;;;4946770;29;20850;-77
2023/07/07 07:46:02;;;;;;;0.60;0.20;;;21.60;1.00;;;;;;4946731;29;20596;-76
2023/07/07 07:48:30;;;;;;;0.70;0.20;;;21.80;1.00;;;;;;4941617;29;20490;-75
2023/07/07 07:50:58;;;;;;;0.70;0.40;;;;;;;;;;4944345;29;20480;-75
2023/07/07 07:53:27;;;;;;;0.60;0.10;;;21.90;1.00;;;;;;4942432;29;20452;-75
2023/07/07 07:55:55;;;;;;;0.60;0.10;;;;;;;;;;4940476;29;20586;-75
2023/07/07 07:58:23;;;;;;;0.63;0.10;;;22.20;1.00;;;;;;4939495;29;20516;-76
2023/07/07 08:00:51;;;;;;;0.60;0.10;;;22.20;1.00;;;;;;4941659;29;20990;-75
2023/07/07 08:03:20;;;;;;;0.63;0.20;;;22.30;1.00;;;;;;4940739;29;20527;-75
2023/07/07 08:05:49;;;;;;;0.70;0.20;;;;;;;;;;4951523;29;20443;-77
2023/07/07 08:08:17;;;;;;;0.60;0.20;;;;;;;;;;4943708;29;20441;-75
2023/07/07 08:10:45;;;;;;;0.80;0.20;;;22.70;1.00;;;;;;4943678;29;20473;-75
2023/07/07 08:13:22;;;;;;;0.70;0.20;;;22.70;1.00;;;;;;4944219;29;20455;-74
2023/07/07 08:16:06;;;;;;;0.70;0.20;;;;;;;;;;4944600;29;20500;-75
2023/07/07 08:18:36;;;;;;;0.70;0.20;;;22.80;1.00;;;;;;4953002;29;20445;-76
2023/07/07 08:21:04;;;;;;;0.70;0.20;;;22.90;1.00;;;;;;4942919;29;20927;-76
2023/07/07 08:23:33;;;;;;;0.70;0.17;;;23.00;1.00;;;;;;4948855;29;20890;-76
2023/07/07 08:26:01;;;;;;;0.70;0.10;;;23.10;1.00;;;;;;4949593;29;20440;-76
2023/07/07 08:28:32;;;;;;;0.70;0.10;;;23.10;1.00;;;;;;4941404;29;20524;-76
2023/07/07 08:31:02;;;;;;;0.70;0.20;;;23.20;1.00;;;;;;4952615;29;20533;-74
2023/07/07 08:33:30;;;;;;;0.70;0.10;;;23.30;1.00;;;;;;4937065;29;20459;-74
2023/07/07 08:36:00;;;;;;;0.70;0.30;;;23.40;1.00;;;;;;4947472;29;20571;-73
2023/07/07 08:38:29;;;;;;;0.70;0.20;;;23.50;1.00;;;;;;4939603;29;20875;-74
2023/07/07 08:40:57;;;;;;;0.70;0.20;;;23.60;1.00;;;;;;4939072;29;20465;-74
2023/07/07 08:43:28;;;;;;;0.70;0.20;;;23.60;1.00;;;;;;4947692;29;20455;-74
2023/07/07 08:46:03;;;;;;;0.70;0.20;;;23.70;1.00;;;;;;4947699;29;20444;-73
2023/07/07 08:48:41;;;;;;;0.70;0.13;;;23.70;1.00;;;;;;4939240;29;20442;-74
2023/07/07 08:51:17;;;;;;;0.70;0.20;;;23.80;1.00;;;;;;4950816;28;20472;-73
2023/07/07 08:53:54;;;;;;;0.70;0.10;;;23.90;1.00;;;;;;4949618;29;20692;-73
2023/07/07 08:56:33;;;;;;;0.70;0.20;;;23.90;1.00;;;;;;4944404;29;20516;-73
2023/07/07 08:59:09;;;;;;;0.70;0.10;;;24.00;1.00;;;;;;4943642;29;20532;-73
2023/07/07 09:01:46;;;;;;;0.70;0.13;;;24.00;1.00;;;;;;4950823;29;20477;-74
2023/07/07 09:04:25;;;;;;;0.70;0.10;;;24.10;1.00;;;;;;4955040;29;20445;-74
2023/07/07 09:07:14;;;;;;;0.70;0.20;;;24.00;1.00;;;;;;4944953;29;20445;-74
2023/07/07 09:09:55;;;;;;;0.70;0.20;;;24.20;1.00;;;;;;4950285;29;20452;-74
2023/07/07 09:12:36;;;;;;;0.70;0.20;;;24.20;1.00;;;;;;4952274;29;20464;-74
2023/07/07 09:15:11;;;;;;;0.70;0.10;;;27.50;1.00;;;;;;4936579;29;20451;-75
2023/07/07 09:17:44;;;;;;;0.70;0.20;;;24.50;1.00;;;;;;4949320;29;20442;-74
2023/07/07 09:20:13;;;;;;;0.70;0.10;;;24.70;1.00;;;;;;4951866;29;20446;-74
2023/07/07 09:22:46;;;;;;;0.70;0.20;;;24.70;1.00;;;;;;4941280;29;20552;-74
2023/07/07 09:25:20;;;;;;;0.80;0.20;;;24.70;1.00;;;;;;4952222;29;20466;-74
2023/07/07 09:27:56;;;;;;;0.70;0.10;;;24.70;1.00;;;;;;4951454;29;20440;-74
2023/07/07 09:30:29;;;;;;;0.73;0.23;;;24.70;1.00;;;;;;4945446;29;20486;-75
2023/07/07 09:32:57;;;;;;;0.70;0.20;;;24.90;1.00;;;;;;4943718;29;20453;-75
2023/07/07 09:35:31;;;;;;;0.70;0.20;;;24.90;1.00;;;;;;4951243;29;20600;-75
2023/07/07 09:38:11;;;;;;;0.70;0.20;;;25.00;1.00;;;;;;4951944;29;20442;-75
2023/07/07 09:40:45;;;;;;;0.70;0.20;;;25.10;1.00;;;;;;4944112;29;20485;-76
2023/07/07 09:43:23;;;;;;;0.70;0.17;;;25.20;1.00;;;;;;4952452;29;20481;-76
2023/07/07 09:46:06;;;;;;;0.70;0.20;;;25.30;1.00;;;;;;4950330;29;20971;-75
2023/07/07 09:48:40;;;;;;;0.70;0.10;;;25.40;1.00;;;;;;4942096;29;20448;-74
2023/07/07 09:51:17;;;;;;;1.10;1.00;;;25.50;1.00;;;;;;4953094;29;20465;-76
2023/07/07 09:53:48;;;;;;;0.70;0.20;;;25.50;1.00;;;;;;4947579;29;20493;-76
2023/07/07 09:56:22;;;;;;;0.70;0.20;;;25.60;1.00;;;;;;4943905;29;20487;-76
2023/07/07 09:58:55;;;;;;;0.80;0.20;;;25.50;1.00;;;;;;4956596;29;20446;-77
2023/07/07 10:01:27;;;;;;;0.70;0.10;;;;;;;;;;4955457;29;20514;-77
2023/07/07 10:03:56;;;;;;;0.70;0.20;;;;;;;;;;4956371;28;20557;-75
2023/07/07 10:06:31;;;;;;;0.70;0.13;;;25.70;1.00;;;;;;4957443;29;20446;-75
2023/07/07 10:09:01;;;;;;;0.70;0.30;;;25.70;1.00;;;;;;4957064;29;20936;-76
2023/07/07 10:11:33;;;;;;;0.70;0.10;;;25.80;1.00;;;;;;4945186;29;20471;-75
2023/07/07 10:14:22;;;;;;;0.70;0.10;;;25.80;1.00;;;;;;4938239;29;20442;-76
2023/07/07 10:16:58;;;;;;;0.70;0.10;;;25.90;1.00;;;;;;4938010;29;20546;-75
2023/07/07 10:19:27;;;;;;;0.70;0.20;;;26.00;1.00;;;;;;4938551;29;20494;-74
2023/07/07 10:21:56;;;;;;;0.97;0.87;;;26.10;1.00;;;;;;4937491;29;20475;-75
2023/07/07 10:24:28;;;;;;;0.70;0.20;;;26.20;1.00;;;;;;4937710;29;20475;-75
2023/07/07 10:26:57;;;;;;;0.70;0.20;;;26.30;1.00;;;;;;4937530;29;20951;-75
2023/07/07 10:29:33;;;;;;;0.70;0.20;;;26.40;1.00;;;;;;4937884;29;20470;-74
2023/07/07 10:32:01;;;;;;;0.70;0.20;;;26.40;1.00;;;;;;4937007;29;20592;-75
2023/07/07 10:34:32;;;;;;;0.70;0.10;;;26.50;1.00;;;;;;4937191;29;20456;-74
2023/07/07 10:37:01;;;;;;;0.70;0.17;;;26.60;1.00;;;;;;4937090;29;20578;-76
2023/07/07 10:39:32;;;;;;;0.70;0.10;;;26.60;1.00;;;;;;4936994;29;20451;-74
2023/07/07 10:42:00;;;;;;;0.70;0.10;;;26.70;1.00;;;;;;4937268;29;20479;-74
2023/07/07 10:44:28;;;;;;;0.70;0.10;;;26.80;1.00;;;;;;4937080;29;20447;-75
2023/07/07 10:46:56;;;;;;;0.70;0.20;;;26.90;1.00;;;;;;4936913;29;20993;-74
2023/07/07 10:49:26;;;;;;;0.70;0.10;;;27.00;1.00;;;;;;4937348;29;20486;-75
2023/07/07 10:52:16;;;;;;;0.70;0.30;;;27.00;1.00;;;;;;4936532;29;20467;-74
2023/07/07 10:54:59;;;;;;;0.70;0.10;;;27.00;1.00;;;;;;4937376;29;20443;-75
2023/07/07 10:57:42;;;;;;;1.90;1.80;;;27.10;1.00;;;;;;4941371;29;20488;-73
2023/07/07 11:00:29;;;;;;;0.70;0.13;;;27.10;1.00;;;;;;4943967;29;20962;-75
2023/07/07 11:03:12;;;;;;;0.70;0.20;;;;;;;;;;4940715;29;20462;-74
2023/07/07 11:05:56;;;;;;;0.70;0.20;;;27.30;1.00;;;;;;4937506;29;20447;-75
2023/07/07 11:08:40;;;;;;;0.70;0.10;;;27.30;1.00;;;;;;4936756;29;20436;-75
2023/07/07 11:11:23;;;;;;;0.70;0.20;;;27.40;1.00;;;;;;4945961;29;20469;-74
2023/07/07 11:14:01;;;;;;;0.70;0.10;;;27.30;1.00;;;;;;4955396;28;20534;-74
2023/07/07 11:16:37;;;;;;;0.70;0.20;;;27.40;1.00;;;;;;4955364;29;20573;-74
2023/07/07 11:19:17;;;;;;;0.70;0.20;;;27.40;1.00;;;;;;4956178;29;20918;-74
2023/07/07 11:21:55;;;;;;;0.87;0.47;;;27.50;1.00;;;;;;4955293;29;20823;-74
2023/07/07 11:24:30;;;;;;;0.70;0.20;;;27.50;1.00;;;;;;4955567;29;20452;-74
2023/07/07 11:27:44;;;;;;;0.70;0.20;;;27.60;1.00;;;;;;4955417;29;20443;-74
2023/07/07 11:30:20;;;;;;;0.70;0.13;;;27.70;1.00;;;;;;4955593;29;20443;-74
2023/07/07 11:33:03;;;;;;;0.70;0.20;;;27.80;1.00;;;;;;4955923;29;20466;-75
2023/07/07 11:35:46;;;;;;;1.43;1.33;;;27.80;1.00;;;;;;4955706;29;20453;-75
2023/07/07 11:38:29;;;;;;;0.70;0.20;;;27.90;1.00;;;;;;4955111;29;20478;-75
2023/07/07 11:41:05;;;;;;;0.70;0.20;;;28.00;1.00;;;;;;4957726;29;20467;-75
2023/07/07 11:44:02;;;;;;;0.70;0.20;;;28.00;1.00;;;;;;4954373;29;20490;-76
2023/07/07 11:46:56;;;;;;;0.70;0.10;;;28.20;1.00;;;;;;4954933;29;20450;-75
2023/07/07 11:49:38;;;;;;;0.70;0.10;;;28.20;1.00;;;;;;4955294;29;20470;-75
2023/07/07 11:52:21;;;;;;;0.70;0.20;;;25.50;1.00;;;;;;4954954;29;20466;-75
2023/07/07 11:55:16;;;;;;;0.70;0.10;;;28.40;1.00;;;;;;4955058;29;20469;-75
2023/07/07 11:58:00;;;;;;;0.70;0.20;;;28.50;1.00;;;;;;4955688;29;20572;-75
2023/07/07 12:00:43;;;;;;;0.70;0.20;;;28.50;1.00;;;;;;4956093;29;20525;-74
2023/07/07 12:03:36;;;;;;;0.70;0.10;;;28.50;1.00;;;;;;4955380;29;20440;-75
2023/07/07 12:06:14;;;;;;;0.90;0.40;;;28.50;1.00;;;;;;4955497;29;20474;-74
2023/07/07 12:08:51;;;;;;;0.70;0.20;;;28.60;1.00;;;;;;4955993;29;20432;-74
2023/07/07 12:11:19;;;;;;;0.70;0.30;;;;;;;;;;4945126;29;21054;-75
2023/07/07 12:14:00;;;;;;;0.70;0.10;;;28.60;1.00;;;;;;4935595;29;21022;-74
2023/07/07 12:16:31;;;;;;;0.97;0.87;;;28.70;1.00;;;;;;4935680;29;20526;-75
2023/07/07 12:19:11;;;;;;;0.70;0.10;;;28.70;1.00;;;;;;4935940;29;20467;-75
2023/07/07 12:21:40;;;;;;;0.70;0.20;;;28.80;1.00;;;;;;4935423;29;21042;-75
2023/07/07 12:24:15;;;;;;;0.70;0.20;;;28.90;1.00;;;;;;4935438;29;20451;-74
2023/07/07 12:26:46;;;;;;;0.70;0.10;;;28.90;1.00;;;;;;4938621;29;20491;-74
2023/07/07 12:29:17;;;;;;;0.70;0.10;;;29.00;1.00;;;;;;4944504;29;20446;-76
2023/07/07 12:31:47;;;;;;;0.70;0.10;;;28.90;1.00;;;;;;4942562;29;20665;-72
2023/07/07 12:34:19;;;;;;;0.70;0.10;;;;;;;;;;4941889;29;20457;-75
2023/07/07 12:36:48;;;;;;;0.70;0.20;;;28.90;1.00;;;;;;4944595;29;20527;-76
2023/07/07 12:39:17;;;;;;;0.70;0.10;;;28.90;1.00;;;;;;4946366;29;20467;-74
2023/07/07 12:41:49;;;;;;;0.90;0.40;;;29.00;1.00;;;;;;4949730;29;20547;-76
2023/07/07 12:44:17;;;;;;;0.80;0.30;;;28.80;1.00;;;;;;4951420;29;20459;-75
2023/07/07 12:46:47;;;;;;;0.70;0.20;;;28.80;1.00;;;;;;4951794;29;20476;-75
2023/07/07 12:49:20;;;;;;;0.70;0.13;;;29.00;1.00;;;;;;4949884;29;20451;-77
2023/07/07 12:51:56;;;;;;;0.70;0.10;;;29.10;1.00;;;;;;4948889;29;20507;-76
2023/07/07 12:54:31;;;;;;;0.70;0.20;;;29.10;1.00;;;;;;4942844;29;20479;-75
2023/07/07 12:57:01;;;;;;;0.70;0.10;;;29.20;1.00;;;;;;4936868;29;20450;-76
2023/07/07 12:59:36;;;;;;;0.70;0.20;;;29.40;1.00;;;;;;4918515;29;20448;-76
2023/07/07 13:02:17;;;;;;;3.57;2.37;;;29.30;1.00;;;;;;4920116;29;20496;-74
2023/07/07 13:04:50;;;;;;;0.70;0.10;;;29.30;1.00;;;;;;4918290;29;20453;-76
2023/07/07 13:07:21;;;;;;;0.70;0.20;;;29.30;1.00;;;;;;4918555;29;20501;-75
2023/07/07 13:09:51;;;;;;;0.70;0.10;;;29.30;1.00;;;;;;4919243;29;20552;-75
2023/07/07 13:12:42;;;;;;;0.70;0.20;;;29.40;1.00;;;;;;4919863;29;20525;-75
2023/07/07 13:15:18;;;;;;;0.70;0.20;;;29.50;1.00;;;;;;4920039;29;20548;-74
2023/07/07 13:17:49;;;;;;;1.93;1.23;;;29.50;1.00;;;;;;4919712;29;21067;-75
2023/07/07 13:20:19;;;;;;;0.70;0.10;;;29.50;1.00;;;;;;4920277;29;20443;-75
2023/07/07 13:22:50;;;;;;;2.20;0.90;;;29.60;1.00;;;;;;4919777;29;20510;-75
2023/07/07 13:25:21;;;;;;;0.70;0.10;;;29.60;1.00;;;;;;4919731;29;21045;-74
2023/07/07 13:27:52;;;;;;;0.70;0.10;;;29.70;1.00;;;;;;4920366;29;20464;-74
2023/07/07 13:30:26;;;;;;;2.60;2.10;;;29.80;1.00;;;;;;4920180;29;20439;-75
2023/07/07 13:32:55;;;;;;;0.70;0.20;;;29.90;1.00;;;;;;4920180;29;20486;-75
2023/07/07 13:35:25;;;;;;;0.70;0.20;;;30.00;1.00;;;;;;4921573;29;20534;-75
2023/07/07 13:37:58;;;;;;;0.70;0.10;;;29.90;1.00;;;;;;4920163;29;21021;-75
2023/07/07 13:40:27;;;;;;;0.70;0.10;;;30.00;1.00;;;;;;4920331;29;20992;-77
2023/07/07 13:42:55;;;;;;;0.70;0.10;;;30.10;1.00;;;;;;4919373;29;20454;-74
2023/07/07 13:45:24;;;;;;;0.70;0.10;;;30.10;1.00;;;;;;4920492;29;20486;-76
2023/07/07 13:47:54;;;;;;;0.70;0.20;;;30.10;1.00;;;;;;4920605;29;20930;-76
2023/07/07 13:50:25;;;;;;;0.70;0.10;;;30.00;1.00;;;;;;4927974;29;20443;-76
2023/07/07 13:52:55;;;;;;;0.80;0.40;;;30.00;1.00;;;;;;4919808;29;20973;-75
2023/07/07 13:55:26;;;;;;;0.70;0.20;;;29.70;1.00;;;;;;4921831;29;20457;-75
2023/07/07 13:57:54;;;;;;;1.00;0.40;;;29.70;1.00;;;;;;4920455;29;20997;-75
2023/07/07 14:00:29;;;;;;;1.10;0.70;;;29.70;1.00;;;;;;4919409;29;20483;-76
2023/07/07 14:02:58;;;;;;;0.70;0.10;;;29.50;1.00;;;;;;4901725;29;20816;-75
2023/07/07 14:05:32;;;;;;;0.70;0.20;;;29.60;1.00;;;;;;4904148;29;20511;-75
2023/07/07 14:08:06;;;;;;;0.70;0.17;;;29.60;1.00;;;;;;4917731;29;20556;-75
2023/07/07 14:10:36;;;;;;;0.70;0.17;;;29.90;1.00;;;;;;4928490;29;20475;-75
2023/07/07 14:13:14;;;;;;;1.23;1.07;;;30.10;1.00;;;;;;4943007;29;21008;-75
2023/07/07 14:15:47;;;;;;;1.00;0.30;;;30.10;1.00;;;;;;4940640;29;21035;-75
2023/07/07 14:18:18;;;;;;;0.70;0.10;;;30.10;1.00;;;;;;4939129;29;20540;-77
2023/07/07 14:20:48;;;;;;;0.90;0.20;;;;;;;;;;4939218;29;20458;-75
2023/07/07 14:23:18;;;;;;;0.70;0.20;;;30.30;1.00;;;;;;4938612;29;20479;-75
2023/07/07 14:25:48;;;;;;;0.70;0.20;;;30.50;1.00;;;;;;4939097;29;20514;-75
2023/07/07 14:28:19;;;;;;;0.70;0.10;;;30.60;1.00;;;;;;4940122;29;20455;-75
2023/07/07 14:30:56;;;;;;;0.70;0.20;;;;;;;;;;4938575;29;20946;-75
2023/07/07 14:33:32;;;;;;;0.80;0.37;;;30.90;1.00;;;;;;4937940;29;20450;-76
2023/07/07 14:36:02;;;;;;;0.70;0.20;;;30.90;1.00;;;;;;4937375;29;20458;-76
2023/07/07 14:38:32;;;;;;;0.70;0.10;;;30.90;1.00;;;;;;4937585;29;20535;-75
2023/07/07 14:41:11;;;;;;;0.70;0.20;;;31.10;1.00;;;;;;4937602;29;20510;-75
2023/07/07 14:43:41;;;;;;;0.70;0.20;;;31.20;1.00;;;;;;4936803;29;20819;-76
2023/07/07 14:46:16;;;;;;;0.90;0.63;;;31.30;1.00;;;;;;4937505;29;20471;-76
2023/07/07 14:48:48;;;;;;;0.70;0.20;;;;;;;;;;4936957;29;20447;-75
2023/07/07 14:51:20;;;;;;;1.70;1.30;;;31.30;1.00;;;;;;4937400;29;20599;-76
2023/07/07 14:53:56;;;;;;;0.80;0.30;;;31.30;1.00;;;;;;4937624;29;21009;-76
2023/07/07 14:56:29;;;;;;;0.70;0.13;;;31.40;1.00;;;;;;4939132;29;20482;-76
2023/07/07 14:58:59;;;;;;;0.70;0.20;;;31.40;1.00;;;;;;4939112;29;20866;-76
2023/07/07 15:01:32;;;;;;;0.70;0.20;;;31.40;1.00;;;;;;4946616;29;21042;-76
2023/07/07 15:04:12;;;;;;;0.93;0.40;;;31.50;1.00;;;;;;4960366;29;20530;-76
2023/07/07 15:06:46;;;;;;;0.70;0.20;;;31.50;1.00;;;;;;4961329;29;20872;-75
2023/07/07 15:09:14;;;;;;;0.70;0.30;;;31.50;1.00;;;;;;4958380;29;20497;-76
2023/07/07 15:11:42;;;;;;;0.70;0.20;;;31.50;1.00;;;;;;4943454;29;20841;-75
2023/07/07 15:14:13;;;;;;;0.70;0.13;;;31.50;1.00;;;;;;4938299;29;20624;-76
2023/07/07 15:16:42;;;;;;;0.70;0.10;;;31.40;1.00;;;;;;4937945;29;20465;-75
2023/07/07 15:19:15;;;;;;;0.70;0.30;;;31.40;1.00;;;;;;4938078;29;20471;-76
2023/07/07 15:21:44;;;;;;;0.70;0.20;;;31.30;1.00;;;;;;4937899;29;20527;-76
2023/07/07 15:24:12;;;;;;;0.80;0.20;;;31.40;1.00;;;;;;4937853;29;20975;-76
2023/07/07 15:26:41;;;;;;;0.80;0.40;;;31.40;1.00;;;;;;4938170;29;20575;-76
2023/07/07 15:29:15;;;;;;;0.70;0.10;;;31.50;1.00;;;;;;4937663;29;20539;-76
2023/07/07 15:31:44;;;;;;;0.70;0.10;;;31.70;1.00;;;;;;4938688;29;20471;-75
2023/07/07 15:34:12;;;;;;;0.70;0.20;;;31.70;1.00;;;;;;4937772;29;20455;-77
2023/07/07 15:36:41;;;;;;;0.80;0.30;;;31.70;1.00;;;;;;4937233;29;20447;-75
2023/07/07 15:39:12;;;;;;;0.70;0.10;;;31.40;1.00;;;;;;4937510;29;20541;-75
2023/07/07 15:41:41;;;;;;;0.70;0.10;;;31.20;1.00;;;;;;4937238;29;20837;-74
2023/07/07 15:44:09;;;;;;;0.70;0.20;;;31.30;1.00;;;;;;4936643;29;20514;-74
2023/07/07 15:46:39;;;;;;;0.70;0.10;;;31.60;1.00;;;;;;4937481;29;20454;-76
2023/07/07 15:49:17;;;;;;;0.70;0.27;;;31.80;1.00;;;;;;4936939;29;20794;-76
2023/07/07 15:51:47;;;;;;;0.70;0.20;;;32.00;1.00;;;;;;4937736;29;20467;-76
2023/07/07 15:54:15;;;;;;;1.33;1.03;;;32.00;1.00;;;;;;4938561;29;21014;-75
2023/07/07 15:56:45;;;;;;;0.70;0.20;;;32.20;1.00;;;;;;4938073;29;20542;-75
2023/07/07 15:59:16;;;;;;;0.70;0.20;;;32.30;1.00;;;;;;4939643;29;20483;-77
2023/07/07 16:01:45;;;;;;;0.70;0.20;;;;;;;;;;4938768;29;20569;-76
2023/07/07 16:04:13;;;;;;;0.70;0.20;;;32.50;1.00;;;;;;4940018;29;20447;-77
2023/07/07 16:06:41;;;;;;;0.70;0.20;;;32.70;1.00;;;;;;4940260;29;20479;-75
2023/07/07 16:09:13;;;;;;;0.70;0.20;;;32.70;1.00;;;;;;4944395;29;20444;-76
2023/07/07 16:11:41;;;;;;;0.70;0.20;;;33.00;1.00;;;;;;4930296;29;20464;-76
2023/07/07 16:14:10;;;;;;;0.70;0.20;;;33.10;1.00;;;;;;4924271;29;20480;-77
2023/07/07 16:16:40;;;;;;;0.70;0.20;;;33.20;1.00;;;;;;4922710;29;20537;-75
2023/07/07 16:19:12;;;;;;;0.70;0.20;;;33.40;1.00;;;;;;4923502;29;20999;-76
2023/07/07 16:21:41;;;;;;;0.70;0.20;;;33.70;1.00;;;;;;4923612;29;20537;-76
2023/07/07 16:24:11;;;;;;;0.70;0.20;;;33.80;1.00;;;;;;4923697;29;20456;-74
2023/07/07 16:26:41;;;;;;;0.70;0.20;;;33.80;1.00;;;;;;4923978;29;20456;-76
2023/07/07 16:29:12;;;;;;;0.70;0.17;;;33.90;1.00;;;;;;4924923;29;20437;-75
2023/07/07 16:31:41;;;;;;;0.70;0.20;;;33.90;1.00;;;;;;4923424;29;20468;-75
2023/07/07 16:34:11;;;;;;;1.47;1.37;;;34.30;1.00;;;;;;4923785;29;20444;-75
2023/07/07 16:36:39;;;;;;;1.90;1.80;;;34.30;1.00;;;;;;4923266;29;20449;-76
2023/07/07 16:39:13;;;;;;;1.30;0.60;;;34.30;1.00;;;;;;4922745;29;20457;-75
2023/07/07 16:41:42;;;;;;;1.97;0.77;;;34.10;1.00;;;;;;4923510;29;20474;-74
2023/07/07 16:44:10;;;;;;;0.70;0.20;;;;;;;;;;4923140;29;20456;-74
2023/07/07 16:46:39;;;;;;;5.50;3.50;;;33.80;1.00;;;;;;4919501;29;20482;-75
2023/07/07 16:49:11;;;;;;;1.67;1.07;;;33.80;1.00;;;;;;4917671;29;20528;-75
2023/07/07 16:51:40;;;;;;;0.70;0.20;;;33.80;1.00;;;;;;4917652;29;20473;-76
2023/07/07 16:54:08;;;;;;;0.70;0.20;;;36.40;1.00;;;;;;4917788;29;20547;-76
2023/07/07 16:56:41;;;;;;;0.70;0.20;;;34.00;1.00;;;;;;4918314;29;20452;-76
2023/07/07 16:59:12;;;;;;;0.70;0.20;;;34.00;1.00;;;;;;4918965;29;20454;-76
2023/07/07 17:01:40;;;;;;;0.70;0.20;;;34.30;1.00;;;;;;4908980;29;20481;-76
2023/07/07 17:04:08;;;;;;;0.70;0.20;;;34.60;1.00;;;;;;4897838;29;20451;-74
2023/07/07 17:06:39;;;;;;;0.70;0.20;;;34.60;1.00;;;;;;4899333;29;20449;-75
2023/07/07 17:09:12;;;;;;;0.90;0.67;;;34.80;1.00;;;;;;4898822;29;20465;-75
2023/07/07 17:11:42;;;;;;;0.80;0.50;;;34.90;1.00;;;;;;4911022;29;20472;-75
2023/07/07 17:14:10;;;;;;;0.70;0.20;;;35.00;1.00;;;;;;4921852;29;20488;-75
2023/07/07 17:16:40;;;;;;;0.70;0.20;;;35.20;1.00;;;;;;4921952;29;20495;-74
2023/07/07 17:19:19;;;;;;;0.70;0.20;;;35.20;1.00;;;;;;4925720;29;20503;-75
2023/07/07 17:21:47;;;;;;;0.70;0.20;;;35.30;1.00;;;;;;4927852;29;20471;-74
2023/07/07 17:24:14;;;;;;;0.70;0.20;;;35.30;1.00;;;;;;4928214;29;20483;-76
2023/07/07 17:26:46;;;;;;;0.70;0.20;;;35.30;1.00;;;;;;4922174;29;20515;-74
2023/07/07 17:29:15;;;;;;;0.70;0.20;;;35.40;1.00;;;;;;4920980;29;20440;-76
2023/07/07 17:31:44;;;;;;;0.70;0.20;;;35.40;1.00;;;;;;4919724;29;20886;-77